Time;durP1;ratioP1;P1;durP2;ratioP2;P2;SDS_P1;SDS_P2;PMS_P1;PMS_P2;Temp;Humidity;BMP_temperature;BMP_pressure;BME280_temperature;BME280_humidity;BME280_pressure;Samples;Min_cycle;Max_cycle;Signal;HPM_P1;HPM_P2
2023/03/30 00:01:24;;;;;;;11.73;6.73;;;11.00;99.90;;;;;;5057509;28;20459;-62
2023/03/30 00:03:53;;;;;;;10.80;6.10;;;11.00;99.90;;;;;;5058293;28;20483;-64
2023/03/30 00:06:23;;;;;;;13.27;5.77;;;11.00;99.90;;;;;;5057775;28;20444;-62
2023/03/30 00:08:55;;;;;;;10.27;6.30;;;11.00;99.90;;;;;;5058266;28;20461;-61
2023/03/30 00:11:24;;;;;;;9.63;6.73;;;11.00;99.90;;;;;;5050533;28;20420;-67
2023/03/30 00:13:51;;;;;;;10.13;5.50;;;11.00;99.90;;;;;;5053089;28;20448;-66
2023/03/30 00:16:19;;;;;;;9.10;5.80;;;11.00;99.90;;;;;;5051934;28;20511;-60
2023/03/30 00:18:46;;;;;;;8.97;5.10;;;11.10;99.90;;;;;;5042158;28;20499;-64
2023/03/30 00:21:16;;;;;;;8.60;5.87;;;11.10;99.90;;;;;;5044619;28;20524;-63
2023/03/30 00:23:46;;;;;;;7.73;5.60;;;11.00;99.90;;;;;;5057610;28;20428;-63
2023/03/30 00:26:14;;;;;;;9.57;5.40;;;10.90;99.90;;;;;;5058113;28;20857;-63
2023/03/30 00:28:42;;;;;;;6.87;5.27;;;10.90;99.90;;;;;;5050773;28;20444;-67
2023/03/30 00:31:12;;;;;;;14.53;5.50;;;10.90;99.90;;;;;;5056808;28;20436;-67
2023/03/30 00:33:39;;;;;;;6.33;5.20;;;10.90;99.90;;;;;;5044300;28;20472;-65
2023/03/30 00:36:07;;;;;;;5.93;5.30;;;10.80;99.90;;;;;;5056163;28;20458;-61
2023/03/30 00:38:34;;;;;;;7.83;6.17;;;10.80;99.90;;;;;;5051502;28;20434;-60
2023/03/30 00:41:01;;;;;;;6.23;5.03;;;10.80;99.90;;;;;;5058552;28;20484;-60
2023/03/30 00:43:29;;;;;;;8.43;5.60;;;10.80;99.90;;;;;;5041501;28;20447;-65
2023/03/30 00:45:58;;;;;;;9.47;5.73;;;10.70;99.90;;;;;;5051019;28;20478;-64
2023/03/30 00:48:29;;;;;;;6.33;4.90;;;10.70;99.90;;;;;;5049816;28;20509;-62
2023/03/30 00:51:01;;;;;;;5.30;4.80;;;10.70;99.90;;;;;;5056710;28;20437;-66
2023/03/30 00:53:32;;;;;;;11.63;5.30;;;10.70;99.90;;;;;;5038406;28;20475;-64
2023/03/30 00:56:03;;;;;;;8.40;5.37;;;10.70;99.90;;;;;;5050371;28;20463;-60
2023/03/30 00:58:31;;;;;;;9.33;5.63;;;10.60;99.90;;;;;;5056006;28;20495;-61
2023/03/30 01:01:01;;;;;;;8.63;5.10;;;10.60;99.90;;;;;;5056532;28;20491;-65
2023/03/30 01:03:32;;;;;;;6.43;5.60;;;10.60;99.90;;;;;;5048669;28;20527;-64
2023/03/30 01:06:02;;;;;;;6.40;5.30;;;10.60;99.90;;;;;;5054668;28;20472;-64
2023/03/30 01:08:31;;;;;;;10.17;5.23;;;10.60;99.90;;;;;;5039033;28;20984;-65
2023/03/30 01:11:00;;;;;;;8.07;5.10;;;10.60;99.90;;;;;;5050762;28;20471;-65
2023/03/30 01:13:28;;;;;;;7.43;5.70;;;10.60;99.90;;;;;;5055795;28;20440;-65
2023/03/30 01:16:09;;;;;;;6.00;5.40;;;10.60;99.90;;;;;;5055677;28;20474;-62
2023/03/30 01:18:53;;;;;;;9.10;5.53;;;10.60;99.90;;;;;;5038716;28;20439;-63
2023/03/30 01:21:44;;;;;;;10.43;5.33;;;10.60;99.90;;;;;;5056335;28;20486;-58
2023/03/30 01:24:48;;;;;;;8.00;5.60;;;10.60;99.90;;;;;;5055405;28;20464;-64
2023/03/30 01:27:44;;;;;;;6.73;5.27;;;10.60;99.90;;;;;;5057039;28;20433;-59
2023/03/30 01:30:29;;;;;;;6.30;5.50;;;10.60;99.90;;;;;;5040046;28;20471;-65
2023/03/30 01:33:35;;;;;;;9.50;5.57;;;10.60;99.90;;;;;;5051320;28;20421;-65
2023/03/30 01:36:38;;;;;;;7.83;4.57;;;10.60;99.90;;;;;;5044730;28;20475;-64
2023/03/30 01:39:39;;;;;;;7.50;4.70;;;10.60;99.90;;;;;;5035483;28;20977;-65
2023/03/30 01:42:16;;;;;;;10.97;5.80;;;10.50;99.90;;;;;;5056500;28;20425;-59
2023/03/30 01:44:52;;;;;;;7.63;5.03;;;10.50;99.90;;;;;;5045364;28;20455;-61
2023/03/30 01:47:23;;;;;;;6.77;4.97;;;10.50;99.90;;;;;;5046803;28;20918;-59
2023/03/30 01:49:58;;;;;;;7.20;5.07;;;10.40;99.90;;;;;;5056155;28;20421;-59
2023/03/30 01:52:30;;;;;;;7.20;5.47;;;10.50;99.90;;;;;;5043808;28;20522;-63
2023/03/30 01:55:03;;;;;;;7.00;5.63;;;10.40;99.90;;;;;;5056487;28;20472;-63
2023/03/30 01:57:35;;;;;;;9.27;5.90;;;10.40;99.90;;;;;;5056672;28;20458;-60
2023/03/30 02:00:11;;;;;;;6.33;4.90;;;10.50;99.90;;;;;;5044548;28;20461;-65
2023/03/30 02:02:47;;;;;;;7.07;4.73;;;10.40;99.90;;;;;;5043490;28;20428;-60
2023/03/30 02:05:17;;;;;;;8.10;5.67;;;10.40;99.90;;;;;;5041774;28;20424;-62
2023/03/30 02:07:49;;;;;;;10.47;6.57;;;10.40;99.90;;;;;;5055652;28;20715;-59
2023/03/30 02:10:21;;;;;;;7.60;5.00;;;10.40;99.90;;;;;;5043933;28;20421;-63
2023/03/30 02:12:52;;;;;;;9.30;5.40;;;10.40;99.90;;;;;;5035076;28;20439;-65
2023/03/30 02:15:22;;;;;;;10.13;6.10;;;10.40;99.90;;;;;;5042033;28;20507;-64
2023/03/30 02:17:48;;;;;;;8.50;5.47;;;10.40;99.90;;;;;;5055520;28;20464;-63
2023/03/30 02:20:17;;;;;;;10.00;6.37;;;10.40;99.90;;;;;;5043215;28;20486;-64
2023/03/30 02:22:44;;;;;;;13.03;8.17;;;10.50;99.90;;;;;;5039719;28;20510;-65
2023/03/30 02:25:16;;;;;;;10.30;5.77;;;10.50;99.90;;;;;;5051728;28;20440;-57
2023/03/30 02:27:48;;;;;;;6.73;4.97;;;10.50;99.90;;;;;;5056455;28;20425;-62
2023/03/30 02:30:16;;;;;;;6.73;4.57;;;10.50;99.90;;;;;;5041907;28;20452;-63
2023/03/30 02:32:47;;;;;;;9.53;5.23;;;10.40;99.90;;;;;;5041235;28;20927;-60
2023/03/30 02:35:26;;;;;;;13.00;5.60;;;10.40;99.90;;;;;;5055952;28;20451;-61
2023/03/30 02:38:27;;;;;;;4.93;4.00;;;10.40;99.90;;;;;;5056448;28;20509;-60
2023/03/30 02:41:06;;;;;;;6.33;4.53;;;10.40;99.90;;;;;;5045287;28;20452;-64
2023/03/30 02:43:52;;;;;;;6.00;4.93;;;10.40;99.90;;;;;;5049149;28;20478;-64
2023/03/30 02:46:48;;;;;;;7.97;5.40;;;10.40;99.90;;;;;;5055849;28;20428;-63
2023/03/30 02:49:25;;;;;;;6.40;4.80;;;10.50;99.90;;;;;;5051130;28;20473;-62
2023/03/30 02:51:54;;;;;;;6.87;5.03;;;10.40;99.90;;;;;;5055743;28;20470;-65
2023/03/30 02:54:32;;;;;;;7.10;5.47;;;10.40;99.90;;;;;;5057655;28;20464;-64
2023/03/30 02:57:12;;;;;;;6.50;4.40;;;10.40;99.90;;;;;;5050201;28;20463;-61
2023/03/30 02:59:55;;;;;;;7.17;4.50;;;10.50;99.90;;;;;;5059328;28;20476;-63
2023/03/30 03:02:33;;;;;;;8.30;5.00;;;10.50;99.90;;;;;;5060258;28;20467;-57
2023/03/30 03:05:03;;;;;;;9.83;5.07;;;10.50;99.90;;;;;;5059821;28;20416;-58
2023/03/30 03:07:32;;;;;;;7.57;5.63;;;10.40;99.90;;;;;;5050162;28;20940;-66
2023/03/30 03:10:03;;;;;;;9.33;4.53;;;10.40;99.90;;;;;;5044079;28;20427;-64
2023/03/30 03:12:30;;;;;;;6.27;4.33;;;10.50;99.90;;;;;;5040887;28;20765;-65
2023/03/30 03:15:00;;;;;;;8.90;4.90;;;10.50;99.90;;;;;;5057602;28;20459;-62
2023/03/30 03:17:33;;;;;;;12.83;6.10;;;10.50;99.90;;;;;;5049868;28;20518;-66
2023/03/30 03:20:03;;;;;;;6.40;5.20;;;10.50;99.90;;;;;;5052596;28;20536;-61
2023/03/30 03:22:31;;;;;;;11.60;6.30;;;10.50;99.90;;;;;;5059131;28;20499;-59
2023/03/30 03:24:58;;;;;;;6.33;4.70;;;10.40;99.90;;;;;;5058869;28;20436;-62
2023/03/30 03:27:25;;;;;;;9.37;4.70;;;10.40;99.90;;;;;;5049594;28;20544;-64
2023/03/30 03:29:54;;;;;;;8.87;6.17;;;10.40;99.90;;;;;;5042413;28;20437;-62
2023/03/30 03:32:25;;;;;;;8.33;5.37;;;10.40;99.90;;;;;;5048633;28;20494;-61
2023/03/30 03:34:52;;;;;;;7.83;4.40;;;10.30;99.90;;;;;;5051923;28;20518;-62
2023/03/30 03:37:19;;;;;;;6.47;4.80;;;10.40;99.90;;;;;;5052403;28;20539;-63
2023/03/30 03:39:49;;;;;;;8.87;5.93;;;10.40;99.90;;;;;;5057853;28;20479;-62
2023/03/30 03:42:16;;;;;;;9.47;5.37;;;10.30;99.90;;;;;;5057680;28;20436;-57
2023/03/30 03:44:46;;;;;;;8.30;5.50;;;10.30;99.90;;;;;;5057545;28;20444;-61
2023/03/30 03:47:13;;;;;;;9.83;5.90;;;10.30;99.90;;;;;;5049586;28;20463;-65
2023/03/30 03:49:41;;;;;;;11.37;6.37;;;10.30;99.90;;;;;;5048909;28;20507;-60
2023/03/30 03:52:11;;;;;;;8.47;5.63;;;10.30;99.90;;;;;;5057557;28;20491;-65
2023/03/30 03:54:49;;;;;;;13.13;6.10;;;10.20;99.90;;;;;;5057557;28;20476;-64
2023/03/30 03:57:17;;;;;;;6.83;5.03;;;10.30;99.90;;;;;;5053674;28;20551;-62
2023/03/30 03:59:46;;;;;;;6.90;5.37;;;10.20;99.90;;;;;;5045172;28;20584;-62
2023/03/30 04:02:13;;;;;;;8.70;4.80;;;10.20;99.90;;;;;;5057507;28;20472;-62
2023/03/30 04:04:44;;;;;;;9.53;5.47;;;10.20;99.90;;;;;;5057799;28;20436;-61
2023/03/30 04:07:11;;;;;;;9.53;5.50;;;10.30;99.90;;;;;;5052601;28;20435;-63
2023/03/30 04:09:40;;;;;;;6.40;5.17;;;10.30;99.90;;;;;;5049715;28;20428;-63
2023/03/30 04:12:07;;;;;;;14.00;5.50;;;10.30;99.90;;;;;;5055623;28;20452;-65
2023/03/30 04:14:37;;;;;;;13.63;6.63;;;10.30;99.90;;;;;;5048734;28;20463;-60
2023/03/30 04:17:06;;;;;;;8.70;5.30;;;10.30;99.90;;;;;;5040736;28;20454;-65
2023/03/30 04:19:34;;;;;;;8.93;4.70;;;10.30;99.90;;;;;;5039201;28;20499;-67
2023/03/30 04:22:05;;;;;;;6.67;5.80;;;10.30;99.90;;;;;;5039426;28;20468;-65
2023/03/30 04:24:37;;;;;;;7.47;4.90;;;10.30;99.90;;;;;;5042407;28;20493;-64
2023/03/30 04:27:04;;;;;;;8.63;5.20;;;10.30;99.90;;;;;;5047814;28;20428;-65
2023/03/30 04:29:31;;;;;;;9.70;5.43;;;10.30;99.90;;;;;;5038424;28;20452;-66
2023/03/30 04:32:05;;;;;;;7.87;4.73;;;10.30;99.90;;;;;;5057651;28;20475;-65
2023/03/30 04:34:32;;;;;;;7.00;5.37;;;10.30;99.90;;;;;;5049436;28;20444;-60
2023/03/30 04:36:59;;;;;;;10.63;5.60;;;10.20;99.90;;;;;;5056561;28;20479;-66
2023/03/30 04:39:29;;;;;;;6.93;4.80;;;10.20;99.90;;;;;;5044378;28;20444;-63
2023/03/30 04:41:56;;;;;;;7.80;5.70;;;10.20;99.90;;;;;;5056665;28;20479;-65
2023/03/30 04:44:23;;;;;;;12.50;5.40;;;10.20;99.90;;;;;;5046725;28;20887;-66
2023/03/30 04:46:53;;;;;;;6.27;5.03;;;10.20;99.90;;;;;;5057580;28;20447;-66
2023/03/30 04:49:20;;;;;;;8.80;5.17;;;10.20;99.90;;;;;;5050088;28;20459;-65
2023/03/30 04:51:46;;;;;;;8.20;5.50;;;10.30;99.90;;;;;;5036579;28;20531;-61
2023/03/30 04:54:16;;;;;;;5.63;4.77;;;10.30;99.90;;;;;;5041064;28;20539;-64
2023/03/30 04:56:49;;;;;;;12.50;5.20;;;10.30;99.90;;;;;;5041216;28;20476;-65
2023/03/30 04:59:15;;;;;;;11.00;5.10;;;10.30;99.90;;;;;;5042549;28;20585;-64
2023/03/30 05:01:44;;;;;;;8.37;4.73;;;10.30;99.90;;;;;;5047992;28;20819;-66
2023/03/30 05:04:11;;;;;;;8.47;5.60;;;10.30;99.90;;;;;;5035381;28;20526;-66
2023/03/30 05:06:38;;;;;;;8.17;4.63;;;10.30;99.90;;;;;;5049875;28;20459;-67
2023/03/30 05:09:06;;;;;;;8.40;5.13;;;10.30;99.90;;;;;;5040905;28;20493;-65
2023/03/30 05:11:33;;;;;;;8.90;5.00;;;10.30;99.90;;;;;;5042573;28;20502;-59
2023/03/30 05:14:01;;;;;;;8.37;5.20;;;10.30;99.90;;;;;;5048370;28;20448;-61
2023/03/30 05:16:28;;;;;;;7.00;4.70;;;10.40;99.90;;;;;;5043653;28;20626;-59
2023/03/30 05:18:55;;;;;;;5.97;5.37;;;10.40;99.90;;;;;;5038242;28;20480;-60
2023/03/30 05:21:22;;;;;;;9.63;4.90;;;10.40;99.90;;;;;;5045159;28;20523;-60
2023/03/30 05:23:49;;;;;;;8.63;5.60;;;10.40;99.90;;;;;;5048023;28;20470;-58
2023/03/30 05:26:16;;;;;;;6.33;4.67;;;10.50;99.90;;;;;;5038951;28;20551;-59
2023/03/30 05:28:43;;;;;;;9.90;4.90;;;10.50;99.90;;;;;;5036662;28;20459;-59
2023/03/30 05:31:11;;;;;;;7.03;4.97;;;10.60;99.90;;;;;;5041634;28;20467;-60
2023/03/30 05:33:38;;;;;;;8.43;5.03;;;10.60;99.90;;;;;;5044471;28;20496;-59
2023/03/30 05:36:05;;;;;;;9.70;5.10;;;10.70;99.90;;;;;;5042900;28;20522;-56
2023/03/30 05:38:34;;;;;;;7.87;5.17;;;10.70;99.90;;;;;;5050960;28;20829;-59
2023/03/30 05:41:03;;;;;;;6.77;5.53;;;10.80;99.90;;;;;;5049206;28;20511;-59
2023/03/30 05:43:30;;;;;;;9.00;4.80;;;10.80;99.90;;;;;;5055161;28;20423;-59
2023/03/30 05:45:58;;;;;;;7.90;5.40;;;10.90;99.90;;;;;;5055238;28;20424;-56
2023/03/30 05:48:27;;;;;;;11.13;6.53;;;10.90;99.90;;;;;;5044914;28;20479;-61
2023/03/30 05:50:53;;;;;;;7.80;5.47;;;10.80;99.90;;;;;;5050897;28;20944;-59
2023/03/30 05:53:20;;;;;;;9.93;5.00;;;10.80;99.90;;;;;;5042673;28;20468;-59
2023/03/30 05:55:52;;;;;;;7.67;5.47;;;10.70;99.90;;;;;;5054456;28;20468;-59
2023/03/30 05:58:20;;;;;;;8.03;5.53;;;10.70;99.90;;;;;;5044936;28;20457;-57
2023/03/30 06:00:48;;;;;;;9.17;5.70;;;10.70;99.90;;;;;;5048037;28;20464;-58
2023/03/30 06:03:15;;;;;;;8.30;4.60;;;10.70;99.90;;;;;;5046648;28;20448;-60
2023/03/30 06:05:44;;;;;;;8.80;4.40;;;10.70;99.90;;;;;;5047530;28;20563;-56
2023/03/30 06:08:12;;;;;;;13.33;4.53;;;10.60;99.90;;;;;;5055033;28;20451;-58
2023/03/30 06:10:39;;;;;;;6.53;4.93;;;10.60;99.90;;;;;;5052074;28;20498;-58
2023/03/30 06:13:06;;;;;;;5.63;4.60;;;10.50;99.90;;;;;;5044467;28;20458;-57
2023/03/30 06:15:35;;;;;;;9.33;6.10;;;10.50;99.90;;;;;;5055441;28;20449;-56
2023/03/30 06:18:03;;;;;;;6.33;3.90;;;10.50;99.90;;;;;;5054935;28;20450;-57
2023/03/30 06:20:30;;;;;;;6.77;4.77;;;10.50;99.90;;;;;;5044914;28;20448;-58
2023/03/30 06:22:59;;;;;;;10.87;5.20;;;10.60;99.90;;;;;;5055324;28;20484;-59
2023/03/30 06:25:25;;;;;;;10.23;5.00;;;10.60;99.90;;;;;;5058885;28;20443;-58
2023/03/30 06:27:52;;;;;;;6.47;4.80;;;10.80;99.90;;;;;;5058683;28;20464;-60
2023/03/30 06:30:20;;;;;;;7.17;4.60;;;10.80;99.90;;;;;;5053254;28;20447;-59
2023/03/30 06:32:47;;;;;;;7.20;4.23;;;10.80;99.90;;;;;;5055370;28;20455;-60
2023/03/30 06:35:14;;;;;;;9.93;5.20;;;10.90;99.90;;;;;;5039929;28;20518;-59
2023/03/30 06:37:42;;;;;;;5.40;4.43;;;11.00;99.90;;;;;;5055526;28;20444;-60
2023/03/30 06:40:12;;;;;;;9.00;5.33;;;10.90;99.90;;;;;;5046535;28;20472;-60
2023/03/30 06:42:39;;;;;;;7.77;4.83;;;11.00;99.90;;;;;;5053874;28;20471;-61
2023/03/30 06:45:07;;;;;;;6.50;4.50;;;11.20;99.90;;;;;;5059013;28;20456;-59
2023/03/30 06:47:34;;;;;;;6.60;5.00;;;11.10;99.90;;;;;;5058974;28;20460;-54
2023/03/30 06:50:01;;;;;;;6.70;4.63;;;11.10;99.90;;;;;;5058923;28;20443;-58
2023/03/30 06:52:28;;;;;;;5.20;3.97;;;11.20;99.90;;;;;;5056431;28;20447;-61
2023/03/30 06:54:55;;;;;;;6.77;4.43;;;11.20;99.90;;;;;;5055916;28;20444;-56
2023/03/30 06:57:23;;;;;;;5.60;4.30;;;11.30;99.90;;;;;;5057414;28;20451;-59
2023/03/30 06:59:50;;;;;;;6.80;4.10;;;11.30;99.90;;;;;;5058007;28;20455;-57
2023/03/30 07:02:17;;;;;;;8.60;4.00;;;11.20;99.90;;;;;;5058149;28;20460;-61
2023/03/30 07:04:45;;;;;;;7.30;5.30;;;11.30;99.90;;;;;;5053262;28;20486;-60
2023/03/30 07:07:12;;;;;;;6.13;4.67;;;11.40;99.90;;;;;;5058621;28;20522;-61
2023/03/30 07:09:39;;;;;;;5.00;4.03;;;11.30;99.90;;;;;;5058204;28;20433;-61
2023/03/30 07:12:06;;;;;;;5.07;3.90;;;11.30;99.90;;;;;;5057573;28;20452;-58
2023/03/30 07:14:35;;;;;;;6.43;5.00;;;11.30;99.90;;;;;;5058300;28;20440;-55
2023/03/30 07:17:02;;;;;;;11.93;5.00;;;11.30;99.90;;;;;;5053017;28;20440;-58
2023/03/30 07:19:29;;;;;;;6.87;4.70;;;11.30;99.90;;;;;;5057331;28;20474;-59
2023/03/30 07:21:56;;;;;;;5.80;4.77;;;11.30;99.90;;;;;;5058027;28;20535;-52
2023/03/30 07:24:23;;;;;;;7.47;5.33;;;11.30;99.90;;;;;;5058541;28;20444;-57
2023/03/30 07:26:50;;;;;;;8.70;6.67;;;11.40;99.90;;;;;;5051288;28;20448;-57
2023/03/30 07:29:17;;;;;;;7.97;6.13;;;11.50;99.90;;;;;;5057101;28;20508;-58
2023/03/30 07:31:45;;;;;;;8.23;5.20;;;11.60;99.90;;;;;;5047568;28;20464;-60
2023/03/30 07:34:12;;;;;;;9.73;6.00;;;11.70;99.90;;;;;;5053192;28;20491;-61
2023/03/30 07:36:39;;;;;;;5.67;5.00;;;11.80;99.90;;;;;;5057601;28;20451;-54
2023/03/30 07:39:07;;;;;;;9.73;5.60;;;11.90;99.90;;;;;;5057322;28;20429;-56
2023/03/30 07:41:34;;;;;;;5.10;4.57;;;12.10;99.90;;;;;;5056983;28;20512;-57
2023/03/30 07:44:00;;;;;;;5.70;4.17;;;12.20;99.90;;;;;;5048101;28;20452;-59
2023/03/30 07:46:27;;;;;;;5.43;4.20;;;12.30;99.90;;;;;;5056907;28;20452;-58
2023/03/30 07:48:56;;;;;;;9.83;4.23;;;12.50;99.90;;;;;;5053006;28;20468;-59
2023/03/30 07:51:23;;;;;;;9.00;4.00;;;12.70;99.90;;;;;;5041348;28;20969;-61
2023/03/30 07:53:50;;;;;;;6.73;4.20;;;12.80;99.90;;;;;;5057557;28;20451;-61
2023/03/30 07:56:17;;;;;;;4.70;3.60;;;12.90;99.90;;;;;;5056862;28;20495;-59
2023/03/30 07:58:45;;;;;;;7.97;4.13;;;13.00;99.90;;;;;;5056751;28;20440;-59
2023/03/30 08:01:13;;;;;;;5.60;3.73;;;13.00;99.90;;;;;;5057560;28;20509;-60
2023/03/30 08:03:40;;;;;;;9.90;5.80;;;13.10;99.90;;;;;;5057397;28;20436;-61
2023/03/30 08:06:09;;;;;;;5.50;4.03;;;13.20;99.90;;;;;;5057011;28;20452;-59
2023/03/30 08:08:39;;;;;;;6.80;3.70;;;13.20;99.90;;;;;;5057711;28;20436;-58
2023/03/30 08:11:08;;;;;;;3.87;3.27;;;13.40;99.90;;;;;;5056369;28;20459;-62
2023/03/30 08:13:36;;;;;;;7.70;3.70;;;13.50;99.90;;;;;;5057212;28;20448;-55
2023/03/30 08:16:03;;;;;;;5.40;3.70;;;13.70;99.90;;;;;;5045912;28;20547;-58
2023/03/30 08:18:30;;;;;;;3.97;3.23;;;13.80;99.90;;;;;;5056502;28;20476;-61
2023/03/30 08:20:57;;;;;;;10.80;4.37;;;14.10;99.90;;;;;;5056813;28;20507;-58
2023/03/30 08:23:25;;;;;;;4.27;3.23;;;14.90;99.90;;;;;;5056728;28;20475;-55
2023/03/30 08:25:56;;;;;;;5.13;3.50;;;16.40;99.90;;;;;;5057547;28;20448;-58
2023/03/30 08:28:23;;;;;;;6.30;3.37;;;17.90;99.90;;;;;;5057517;28;20496;-57
2023/03/30 08:30:49;;;;;;;6.47;4.10;;;19.70;99.90;;;;;;5056957;28;20432;-57
2023/03/30 08:33:17;;;;;;;4.10;3.70;;;21.50;99.90;;;;;;5057124;28;20447;-56
2023/03/30 08:35:45;;;;;;;6.57;3.07;;;23.20;99.90;;;;;;5056556;28;20471;-51
2023/03/30 08:38:16;;;;;;;3.30;3.00;;;24.10;96.60;;;;;;5056538;28;20447;-57
2023/03/30 08:40:46;;;;;;;6.90;3.30;;;24.80;92.40;;;;;;5056936;28;20490;-59
2023/03/30 08:43:33;;;;;;;6.07;3.20;;;25.70;87.00;;;;;;5044750;28;20976;-58
2023/03/30 08:46:01;;;;;;;3.03;2.60;;;25.70;81.80;;;;;;5056522;28;20456;-59
2023/03/30 08:48:36;;;;;;;3.27;2.50;;;25.70;78.00;;;;;;5054924;28;20444;-58
2023/03/30 08:51:12;;;;;;;4.23;3.00;;;25.40;76.70;;;;;;5055732;28;20419;-59
2023/03/30 08:53:39;;;;;;;3.70;2.30;;;25.10;76.50;;;;;;5043718;28;20491;-60
2023/03/30 08:56:12;;;;;;;3.20;2.50;;;24.30;77.30;;;;;;5042827;28;20459;-59
2023/03/30 08:58:48;;;;;;;5.10;2.90;;;23.20;80.10;;;;;;5043581;28;20464;-59
2023/03/30 09:01:20;;;;;;;7.33;3.10;;;22.10;84.40;;;;;;5056727;28;20472;-58
2023/03/30 09:04:01;;;;;;;7.00;2.83;;;21.40;88.00;;;;;;5047049;28;20508;-59
2023/03/30 09:06:43;;;;;;;4.33;2.50;;;20.80;91.10;;;;;;5056240;28;20435;-59
2023/03/30 09:09:13;;;;;;;8.20;2.87;;;20.20;93.20;;;;;;5055510;28;20464;-58
2023/03/30 09:11:41;;;;;;;5.13;2.50;;;19.60;95.80;;;;;;5049824;28;20925;-59
2023/03/30 09:14:15;;;;;;;2.93;2.60;;;19.20;98.50;;;;;;5046594;28;20482;-58
2023/03/30 09:16:50;;;;;;;2.93;2.13;;;18.90;99.90;;;;;;5035294;28;20885;-60
2023/03/30 09:19:24;;;;;;;5.43;2.87;;;18.80;99.90;;;;;;5039009;28;20838;-57
2023/03/30 09:21:54;;;;;;;7.00;2.50;;;18.60;99.90;;;;;;5041898;28;20483;-61
2023/03/30 09:24:26;;;;;;;6.13;3.03;;;18.50;99.90;;;;;;5054513;28;20463;-60
2023/03/30 09:27:02;;;;;;;5.37;2.63;;;18.40;99.90;;;;;;5051897;28;20468;-59
2023/03/30 09:29:32;;;;;;;4.30;2.80;;;18.40;99.90;;;;;;5050184;28;20425;-59
2023/03/30 09:32:05;;;;;;;3.07;2.30;;;18.30;99.90;;;;;;5055984;28;20468;-58
2023/03/30 09:34:40;;;;;;;6.20;2.57;;;18.20;99.90;;;;;;5056269;28;20452;-58
2023/03/30 09:37:11;;;;;;;7.67;2.90;;;18.10;99.90;;;;;;5038366;28;20789;-56
2023/03/30 09:39:40;;;;;;;5.13;2.67;;;18.00;99.90;;;;;;5047632;28;20455;-58
2023/03/30 09:42:21;;;;;;;8.43;2.33;;;17.90;99.90;;;;;;5056211;28;20473;-58
2023/03/30 09:44:55;;;;;;;5.97;3.20;;;17.90;99.90;;;;;;5035405;28;20424;-57
2023/03/30 09:47:25;;;;;;;13.70;3.97;;;17.70;99.90;;;;;;5051031;28;20476;-57
2023/03/30 09:49:59;;;;;;;2.40;2.20;;;17.60;99.90;;;;;;5051538;28;20856;-58
2023/03/30 09:52:36;;;;;;;5.93;1.70;;;17.40;99.90;;;;;;5050876;28;20465;-56
2023/03/30 09:55:35;;;;;;;4.70;3.53;;;17.30;99.90;;;;;;5055876;28;20535;-59
2023/03/30 09:58:16;;;;;;;4.97;2.27;;;17.10;99.90;;;;;;5036359;28;20734;-58
2023/03/30 10:00:44;;;;;;;4.90;2.43;;;17.00;99.90;;;;;;5049634;28;20464;-54
2023/03/30 10:03:20;;;;;;;4.77;2.33;;;17.00;99.90;;;;;;5055399;28;20484;-56
2023/03/30 10:06:06;;;;;;;8.90;4.30;;;17.00;99.90;;;;;;5055501;28;20514;-57
2023/03/30 10:08:35;;;;;;;2.57;1.80;;;16.90;99.90;;;;;;5037478;28;20429;-53
2023/03/30 10:11:05;;;;;;;6.60;2.20;;;16.70;99.90;;;;;;5054134;28;20432;-56
2023/03/30 10:13:36;;;;;;;4.80;2.57;;;16.70;99.90;;;;;;5047234;28;20435;-55
2023/03/30 10:16:07;;;;;;;8.90;1.80;;;16.60;99.90;;;;;;5052673;28;20873;-58
2023/03/30 10:18:43;;;;;;;3.50;3.20;;;16.60;99.90;;;;;;5054019;28;20472;-56
2023/03/30 10:21:21;;;;;;;7.40;2.60;;;16.50;99.90;;;;;;5055633;28;20421;-49
2023/03/30 10:24:01;;;;;;;6.60;2.40;;;16.40;99.90;;;;;;5055636;28;20484;-57
2023/03/30 10:26:30;;;;;;;5.10;2.57;;;16.20;99.90;;;;;;5039381;28;20487;-55
2023/03/30 10:29:03;;;;;;;4.20;2.07;;;16.20;99.90;;;;;;5039201;28;20464;-59
2023/03/30 10:31:31;;;;;;;4.23;2.47;;;16.20;99.90;;;;;;5046134;28;20416;-58
2023/03/30 10:34:00;;;;;;;7.10;2.43;;;16.20;99.90;;;;;;5055126;28;20466;-57
2023/03/30 10:36:31;;;;;;;2.33;2.10;;;16.20;99.90;;;;;;5044673;28;20462;-56
2023/03/30 10:39:06;;;;;;;3.93;3.37;;;16.20;99.90;;;;;;5054634;28;20447;-58
2023/03/30 10:41:35;;;;;;;3.60;2.10;;;16.10;99.90;;;;;;5054657;28;20459;-58
2023/03/30 10:44:25;;;;;;;3.40;2.93;;;16.10;99.90;;;;;;5053921;28;20444;-56
2023/03/30 10:46:56;;;;;;;5.80;2.27;;;16.20;99.90;;;;;;5055116;28;20488;-59
2023/03/30 10:49:35;;;;;;;2.77;2.33;;;16.30;99.90;;;;;;5055392;28;20459;-58
2023/03/30 10:52:12;;;;;;;6.50;2.70;;;16.40;99.90;;;;;;5046917;28;20499;-59
2023/03/30 10:54:44;;;;;;;5.97;2.53;;;16.50;99.90;;;;;;5054775;28;20443;-57
2023/03/30 10:57:14;;;;;;;4.53;2.30;;;16.60;99.90;;;;;;5043426;28;20428;-60
2023/03/30 11:00:08;;;;;;;9.83;3.10;;;16.70;99.90;;;;;;5052054;28;20761;-58
2023/03/30 11:02:58;;;;;;;7.17;2.23;;;16.80;99.90;;;;;;5031096;28;20483;-57
2023/03/30 11:05:30;;;;;;;3.43;1.90;;;17.10;99.90;;;;;;5050985;28;20432;-62
2023/03/30 11:08:02;;;;;;;5.20;4.13;;;17.40;99.90;;;;;;5053127;28;20444;-62
2023/03/30 11:10:31;;;;;;;5.77;2.90;;;17.50;99.90;;;;;;5056466;28;20475;-61
2023/03/30 11:13:02;;;;;;;5.40;2.40;;;17.50;99.90;;;;;;5039714;28;20440;-63
2023/03/30 11:15:37;;;;;;;6.57;2.87;;;17.50;99.90;;;;;;5037231;28;20562;-63
2023/03/30 11:18:10;;;;;;;3.23;2.03;;;17.30;99.90;;;;;;5043388;28;20462;-60
2023/03/30 11:20:42;;;;;;;4.80;1.83;;;17.20;99.90;;;;;;5052954;28;20463;-62
2023/03/30 11:23:17;;;;;;;4.43;2.53;;;17.20;99.90;;;;;;5051511;28;20491;-62
2023/03/30 11:25:53;;;;;;;29.50;14.07;;;17.20;99.90;;;;;;5037482;28;20452;-62
2023/03/30 11:28:31;;;;;;;4.70;3.43;;;17.30;99.90;;;;;;5037405;28;20436;-62
2023/03/30 11:31:08;;;;;;;3.80;1.87;;;17.40;99.90;;;;;;5038634;28;20528;-63
2023/03/30 11:33:44;;;;;;;4.67;2.23;;;17.40;99.90;;;;;;5038464;28;20885;-63
2023/03/30 11:36:17;;;;;;;6.60;2.70;;;17.50;99.90;;;;;;5038237;28;20505;-62
2023/03/30 11:38:48;;;;;;;4.43;2.60;;;17.50;99.90;;;;;;5037922;28;20571;-62
2023/03/30 11:41:21;;;;;;;3.67;2.47;;;17.50;99.90;;;;;;5040375;28;20527;-65
2023/03/30 11:43:49;;;;;;;2.97;1.93;;;17.50;99.90;;;;;;5037105;28;20500;-62
2023/03/30 11:46:25;;;;;;;4.10;2.37;;;17.60;99.90;;;;;;5039911;28;20464;-62
2023/03/30 11:49:15;;;;;;;6.23;2.67;;;17.80;99.90;;;;;;5044111;28;20439;-54
2023/03/30 11:51:57;;;;;;;6.23;2.50;;;18.10;99.90;;;;;;5058282;28;20425;-56
2023/03/30 11:54:42;;;;;;;7.83;2.30;;;18.20;99.90;;;;;;5058287;28;20425;-56
2023/03/30 11:57:20;;;;;;;4.80;2.37;;;18.20;99.90;;;;;;5056474;28;20546;-62
2023/03/30 12:00:01;;;;;;;4.97;2.63;;;18.30;99.90;;;;;;5056596;28;20416;-58
2023/03/30 12:02:36;;;;;;;3.80;2.70;;;18.30;99.90;;;;;;5036797;28;20555;-63
2023/03/30 12:05:08;;;;;;;4.67;2.33;;;18.30;99.90;;;;;;5036597;28;20463;-60
2023/03/30 12:07:44;;;;;;;3.23;2.40;;;18.50;99.90;;;;;;5040160;28;20568;-63
2023/03/30 12:10:18;;;;;;;3.73;2.40;;;18.40;99.90;;;;;;5041748;28;20940;-61
2023/03/30 12:12:48;;;;;;;6.90;2.47;;;18.40;99.90;;;;;;5036664;28;20468;-63
2023/03/30 12:15:32;;;;;;;5.70;2.67;;;18.50;99.90;;;;;;5036186;28;20474;-63
2023/03/30 12:18:08;;;;;;;5.37;2.47;;;18.60;99.90;;;;;;5036515;28;20475;-59
2023/03/30 12:20:43;;;;;;;6.50;2.70;;;18.80;99.90;;;;;;5036014;28;20528;-65
2023/03/30 12:23:31;;;;;;;5.90;3.10;;;18.90;99.90;;;;;;5036029;28;21020;-60
2023/03/30 12:26:18;;;;;;;3.27;2.93;;;18.90;99.90;;;;;;5038801;28;20456;-61
2023/03/30 12:28:47;;;;;;;3.70;2.87;;;19.00;99.90;;;;;;5036771;28;20869;-63
2023/03/30 12:31:15;;;;;;;4.67;2.93;;;19.00;99.90;;;;;;5036240;28;20539;-63
2023/03/30 12:33:48;;;;;;;3.90;2.00;;;19.20;99.90;;;;;;5035843;28;20460;-63
2023/03/30 12:36:25;;;;;;;3.70;2.40;;;19.20;99.90;;;;;;5036084;28;20478;-63
2023/03/30 12:38:56;;;;;;;4.90;2.10;;;19.20;99.90;;;;;;5036141;28;20575;-64
2023/03/30 12:41:26;;;;;;;12.77;2.60;;;19.30;99.90;;;;;;5059567;28;20450;-54
2023/03/30 12:44:20;;;;;;;3.23;2.27;;;19.40;99.90;;;;;;5059783;28;20447;-55
2023/03/30 12:46:59;;;;;;;3.67;2.30;;;19.60;99.90;;;;;;5058918;28;20468;-62
2023/03/30 12:49:39;;;;;;;4.87;2.20;;;19.80;99.90;;;;;;5053088;28;20440;-61
2023/03/30 12:52:12;;;;;;;7.00;2.60;;;19.80;99.90;;;;;;5053599;28;20436;-59
2023/03/30 12:55:09;;;;;;;3.90;2.50;;;19.70;99.90;;;;;;5052781;28;20429;-65
2023/03/30 12:57:57;;;;;;;4.80;2.40;;;19.80;99.90;;;;;;5040468;28;20463;-63
2023/03/30 13:00:46;;;;;;;12.00;5.00;;;19.90;99.90;;;;;;5036114;28;20428;-63
2023/03/30 13:03:30;;;;;;;4.20;3.33;;;19.90;99.90;;;;;;5035241;28;20472;-63
2023/03/30 13:06:04;;;;;;;6.50;3.43;;;20.10;99.90;;;;;;5038310;28;20436;-52
2023/03/30 13:08:35;;;;;;;5.73;2.37;;;20.20;99.90;;;;;;5041699;28;20528;-61
2023/03/30 13:11:16;;;;;;;5.77;3.57;;;20.20;99.90;;;;;;5036231;28;20456;-63